Nitta Yuma, Mississippi
Current Conditions -  °F | °C
As of 1:53 PM on Tuesday 21 Oct 2014 (Local Time) from KGLH Reporting Station
Few Clouds Few Clouds  
Wind Chill: 79°   Ceiling: Unl
Heat Index: 80°   Visibility: 10mi
Dew Point: 56°   Wind: 3mph
Humidity: 45%   Direction: NA
Pressure: 30.04"   Gusts: NA
Location:  33.02°N, 90.85°W
Report Text: KGLH 211853Z AUTO VRB03KT 10SM FEW045 26/13 A3004 RMK AO2 SLP177 T02610133
Loading
Personal Weather Stations






























Interactive Weather Map
Tropical Storm Tracking
New forecast layout! Learn more

10-Day Weather Forecast

Advertisements
Track Severe Weather on mobile